Colinton, United Kingdom
Current Conditions -  °F | °C
As of 4:50 PM on Saturday 20 Dec 2014 (Local Time) from EGPH Reporting Station
Few Clouds Few Clouds  
Wind Chill: 37°   Ceiling: Unl
Heat Index: 43°   Visibility: 6mi
Dew Point: 37°   Wind: 10mph
Humidity: 81%   Direction: 250°WSW
Pressure: 30.18"   Gusts: NA
Location:  55.91°N, 3.26°W
Report Text: EGPH 201650Z 25009KT 9999 FEW048 06/03 Q1022
Loading
Personal Weather Stations






























Interactive Weather Map New forecast layout! Learn more

10-Day Weather Forecast

Advertisements
Track Severe Weather on mobile